HEAX/ALY METAR and TAF weather

Enter ICAO airport designator
Station Type Date Time Source
HEAX METAR 2019/10/18 10:00 UTC NOAA

HEAX 181000Z 34010KT 9999 FEW020 28/19 Q1018 NOSIG


Station Type Date Time Source
HEAX Decoded METAR 2019/10/18 10:00 UTC NOAA

Alexandria / Nouzha, Egypt (HEAX) 31-12N 029-57E 7M
Oct 18, 2019 - 06:00 AM EDT / 2019.10.18 1000 UTC
Wind: from the NNW (340 degrees) at 12 MPH (10 KT):0
Visibility: greater than 7 mile(s):0
Sky conditions: mostly clear
Temperature: 82 F (28 C)
Dew Point: 66 F (19 C)
Relative Humidity: 58%
Pressure (altimeter): 30.06 in. Hg (1018 hPa)
ob: HEAX 181000Z 34010KT 9999 FEW020 28/19 Q1018 NOSIG
cycle: 10

Station Type Date Time Source
HEAX TAF 2019/10/18 12:00 UTC NOAA

TAF HEAX 181100Z 1812/1918 04012KT 9999 SCT020
TEMPO 1900/1906 VRB03KT 3000 BR NSC

Example: see airport list